Weather at Pori Airport

Public forecast

Using degrees Celsius for public forecast. Weather courtesy of forecast.io.

Current aviation weather report (METAR) for Pori Airport

2024/06/18 11:50 (retrieved 31 minutes ago)

EFPO 181150Z AUTO 25011KT 9999 FEW014 17/13 Q1009

Closest aviation forecast (TAF) to Pori Airport

Closest forecast is Tampere-Pirkkala Airport, 51.9 nm (96.1 km) E.

2024/06/18 12:42 (retrieved 0 seconds ago)

TAF EFTP 181129Z 1812/1912 26007KT 9999 SCT035 TEMPO 1812/1815 FEW045CB PROB30 1900/1905 5000 BR OVC007